Historyczne dane pomiarowe

Dodano dane terminowe – wersja testowa.

Dane z okresu 1951-2019

Wersja bazy: 1.34 [2019-03-16, lista zmian], aktualizacja planowana na 2019-04-15

Dane meteo z obszaru Polski uzyskane na podstawie danych udostępnionych przez Instytut Meteorologii i Gospodarki Wodnej – Państwowy Instytut Badawczy.

 

Wybierz Datę:    

       

TemperaturaWilgotnośćWiatrCiśnienieOpadyŚniegCzas trwania zjawisk
 Stacja t tx tn tng RH VA  wxwx mslp ppp RRR   cm mm wxwxwxwxwxwxwx
1952-02-26 0.0 1.7 -2.8- 88.3- 8.0 3.0---- 2.2-- 16---------
1952-02-27 -4.3 0.1 -7.6- 90.0- 8.0 1.7---- 0.0-- 18---------
1952-02-28 -8.4 -3.6-11.0- 79.5- 1.0 0.3---- 0.3-- 17---------
1952-02-29 -5.2 -4.4-10.5- 87.8- 8.0 2.0---- 4.3-- 18---------
1952-03-01 -2.7 1.3 -5.5- 88.3- 5.3 4.0---- 1.5-- 25---------
1952-03-02 -5.0 -0.4 -7.7- 82.5- 1.7 3.3---- 0.3-- 20---------
1952-03-03 -4.4 0.7-14.6- 88.0- 4.0 1.7---- 0.0-- 20---------
1952-03-04-11.0 -2.3-14.3- 82.0- 1.7 3.0---- 0.1-- 16---------
1952-03-05 -5.3 -2.9-13.8- 85.3- 5.0 4.7---- 0.1-- 19---------
1952-03-06 -7.7 -2.8-11.2- 77.3- 0.0 3.3---- 0.0-- 21---------
1952-03-07 -5.8 -3.4-10.0- 84.5- 5.3 3.7---- 0.0-- 20---------
1952-03-08 -6.0 -0.4-11.8- 80.0- 0.0 3.3---- 0.0-- 18---------
1952-03-09 -3.8 1.9-18.4- 88.0- 0.0 1.3---- 0.0-- 17---------
1952-03-10 -3.2 6.5-15.4- 89.3- 0.0 3.3---- 0.0-- 17---------
1952-03-11 1.3 6.0-12.1- 94.5- 0.0 3.3---- 0.1-- 13---------
1952-03-12 1.4 3.5 -2.1- 92.3- 5.3 2.7---- 0.1-- 14---------
1952-03-13 -1.1 1.3 -3.5- 88.0- 5.3 3.0---- 3.6-- 13---------
1952-03-14 -6.9 -3.3 -8.4- 77.8- 2.7 4.3---- 0.0-- 22---------
1952-03-15 -0.9 1.5-10.5- 78.0- 8.0 2.7---- 0.0-- 21---------
1952-03-16 0.1 4.6 -2.4- 79.5- 0.0 4.0---- 0.0-- 18---------
1952-03-17 -0.6 3.2 -4.3- 89.0- 2.3 3.3---- 0.0-- 18---------
1952-03-18 -8.2 -2.5-10.9- 70.5- 0.0 1.3---- 0.0-- 17---------
1952-03-19 -5.2 -0.6-15.5- 79.0- 3.7 3.3---- 0.4-- 17---------
1952-03-20 -5.8 -1.9-14.5- 79.0- 1.3 4.7---- 0.1-- 18---------
1952-03-21 -8.0 -2.6-11.5- 75.5- 4.0 3.7---- 0.0-- 18---------
1952-03-22-10.2 -3.9-18.1- 65.0- 0.0 0.7---- 0.0-- 17---------
1952-03-23 -7.3 -3.2-12.0- 73.3- 0.0 2.3---- 0.0------------
1952-03-24 -0.8 2.3-12.4- 91.8- 7.7 4.7---- 3.3------------
1952-03-25 -5.8 0.5-12.2- 72.0- 4.7 4.7---- 0.1-- 4---------
1952-03-26 -9.3 -5.3-12.8- 62.0- 1.3 2.0---- 0.0-- 4---------
71.4 ms

 

Źródłem pochodzenia danych jest Instytut Meteorologii i Gospodarki Wodnej – Państwowy Instytut Badawczy. Dane Instytutu Meteorologii i Gospodarki Wodnej – Państwowego Instytutu Badawczego zostały przetworzone.

Dane źródłowe można odnaleźć na stronie https://dane.imgw.pl